Time;durP1;ratioP1;P1;durP2;ratioP2;P2;SDS_P1;SDS_P2;PMS_P1;PMS_P2;Temp;Humidity;BMP_temperature;BMP_pressure;BME280_temperature;BME280_humidity;BME280_pressure;Samples;Min_cycle;Max_cycle;Signal;HPM_P1;HPM_P2
2022/03/30 00:00:10;;;;;;;22.25;12.40;;;;;;;12.11;45.46;100248.94;5111838;28;20046;-82
2022/03/30 00:02:36;;;;;;;17.35;12.02;;;;;;;12.13;45.58;100254.97;5095118;28;20031;-82
2022/03/30 00:05:03;;;;;;;21.20;12.13;;;;;;;12.13;45.48;100254.97;5089729;28;20058;-81
2022/03/30 00:07:31;;;;;;;20.95;12.13;;;;;;;12.07;45.50;100237.66;5112772;28;20131;-82
2022/03/30 00:10:03;;;;;;;21.75;11.65;;;;;;;12.04;45.68;100229.94;5112861;27;20046;-81
2022/03/30 00:12:28;;;;;;;20.15;11.38;;;;;;;12.06;45.79;100243.22;5111901;28;20039;-81
2022/03/30 00:14:59;;;;;;;19.20;12.15;;;;;;;12.06;45.63;100243.22;5103249;28;20034;-81
2022/03/30 00:17:26;;;;;;;19.58;11.68;;;;;;;12.06;45.73;100240.53;5110485;28;20031;-81
2022/03/30 00:19:53;;;;;;;21.25;11.75;;;;;;;12.07;45.85;100244.91;5098875;28;20046;-82
2022/03/30 00:22:19;;;;;;;21.02;11.52;;;;;;;12.06;45.62;100238.69;5104493;28;20407;-81
2022/03/30 00:24:45;;;;;;;19.60;12.55;;;;;;;12.04;45.87;100246.94;5104075;28;20043;-82
2022/03/30 00:27:12;;;;;;;21.30;11.88;;;;;;;12.02;45.89;100240.06;5120269;27;20091;-82
2022/03/30 00:29:37;;;;;;;17.90;11.90;;;;;;;12.03;45.98;100233.66;5106135;27;20048;-81
2022/03/30 00:32:04;;;;;;;22.45;12.60;;;;;;;11.97;46.10;100240.59;5107307;28;20046;-81
2022/03/30 00:34:29;;;;;;;23.38;12.50;;;;;;;11.93;46.18;100239.28;5104070;27;20039;-83
2022/03/30 00:36:55;;;;;;;23.15;12.93;;;;;;;11.89;46.32;100240.66;5092767;28;20070;-81
2022/03/30 00:39:21;;;;;;;21.55;13.05;;;;;;;11.86;46.58;100238.28;5110044;28;20149;-80
2022/03/30 00:41:49;;;;;;;23.85;14.07;;;;;;;11.82;46.66;100234.28;5109723;28;20055;-80
2022/03/30 00:44:16;;;;;;;22.85;14.00;;;;;;;11.76;46.78;100238.53;5104588;28;20405;-82
2022/03/30 00:46:44;;;;;;;27.23;14.43;;;;;;;11.78;46.84;100235.69;5093279;28;20157;-83
2022/03/30 00:49:13;;;;;;;25.58;14.77;;;;;;;11.73;46.81;100238.03;5100679;28;20090;-81
2022/03/30 00:51:38;;;;;;;23.77;15.20;;;;;;;11.67;47.07;100236.09;5092399;28;20031;-79
2022/03/30 00:54:04;;;;;;;32.47;16.10;;;;;;;11.67;47.23;100236.09;5099306;28;20024;-80
2022/03/30 00:56:31;;;;;;;26.45;16.00;;;;;;;11.60;47.15;100227.88;5086442;28;20058;-80
2022/03/30 00:58:56;;;;;;;26.95;16.85;;;;;;;11.60;47.24;100230.56;5107297;28;20024;-81
2022/03/30 01:01:23;;;;;;;30.10;16.27;;;;;;;11.57;47.29;100223.69;5101104;28;20134;-83
2022/03/30 01:03:48;;;;;;;35.22;17.52;;;;;;;11.65;47.29;100235.41;5106071;28;20455;-81
2022/03/30 01:06:14;;;;;;;28.58;17.42;;;;;;;11.61;47.26;100238.47;5109901;28;20051;-81
2022/03/30 01:08:39;;;;;;;28.65;16.92;;;;;;;11.53;47.52;100225.06;5105785;28;20085;-81
2022/03/30 01:11:06;;;;;;;27.08;18.10;;;;;;;11.51;47.57;100228.94;5108918;28;20040;-81
2022/03/30 01:13:33;;;;;;;31.73;17.85;;;;;;;11.50;47.76;100230.81;5104724;28;20047;-80
2022/03/30 01:16:02;;;;;;;31.83;17.55;;;;;;;11.47;47.86;100231.16;5109536;28;20031;-81
2022/03/30 01:18:27;;;;;;;31.58;16.85;;;;;;;11.27;47.96;100200.31;5100236;28;20537;-80
2022/03/30 01:20:53;;;;;;;29.55;17.42;;;;;;;11.41;48.14;100224.63;5100508;28;20040;-80
2022/03/30 01:23:18;;;;;;;27.80;15.27;;;;;;;11.32;48.60;100214.06;5055903;28;20036;-79
2022/03/30 01:25:44;;;;;;;27.33;15.32;;;;;;;11.32;48.29;100224.84;5101163;28;20420;-79
2022/03/30 01:28:09;;;;;;;21.33;14.02;;;;;;;11.30;48.45;100219.63;5101818;28;20034;-79
2022/03/30 01:33:20;;;;;;;24.15;13.65;;;;;;;11.12;48.71;100198.38;5081781;28;20148;-80
2022/03/30 01:35:46;;;;;;;26.60;15.05;;;;;;;11.20;48.89;100217.16;5089421;28;20039;-78
2022/03/30 01:38:11;;;;;;;24.20;14.18;;;;;;;11.11;48.91;100202.06;5077528;28;20093;-79
2022/03/30 01:40:38;;;;;;;27.67;14.35;;;;;;;11.05;49.06;100207.31;5108107;28;20092;-80
2022/03/30 01:43:04;;;;;;;25.52;14.25;;;;;;;11.12;49.20;100219.91;5086439;28;20027;-79
2022/03/30 01:45:30;;;;;;;22.17;14.38;;;;;;;11.14;49.25;100212.50;5106309;28;20032;-80
2022/03/30 01:47:58;;;;;;;26.42;14.02;;;;;;;11.11;49.21;100215.53;5075470;28;20423;-81
2022/03/30 01:50:25;;;;;;;24.38;13.35;;;;;;;11.13;49.50;100215.34;5101629;28;20590;-78
2022/03/30 01:52:51;;;;;;;26.45;12.70;;;;;;;11.07;49.39;100211.50;5091280;28;20438;-80
2022/03/30 01:55:17;;;;;;;25.08;13.40;;;;;;;11.11;49.54;100215.53;5082834;28;20122;-79
2022/03/30 01:57:42;;;;;;;23.63;13.63;;;;;;;11.06;49.52;100214.38;5107412;28;20057;-81
2022/03/30 02:00:10;;;;;;;23.75;12.85;;;;;;;11.15;49.42;100219.53;5081123;28;20046;-79
2022/03/30 02:02:36;;;;;;;21.52;13.55;;;;;;;11.12;49.56;100229.81;5087607;28;20043;-79
2022/03/30 02:05:02;;;;;;;22.58;13.48;;;;;;;11.02;49.53;100196.91;5094796;28;20043;-78
2022/03/30 02:07:28;;;;;;;21.20;12.93;;;;;;;10.97;50.06;100205.50;5100640;28;20061;-80
2022/03/30 02:09:54;;;;;;;20.92;12.95;;;;;;;11.02;50.04;100223.81;5127182;28;20036;-79
2022/03/30 02:12:20;;;;;;;20.10;12.52;;;;;;;10.80;50.37;100204.72;5087836;28;20535;-80
2022/03/30 02:14:49;;;;;;;26.55;13.63;;;;;;;10.94;50.38;100224.69;5104105;28;20027;-81
2022/03/30 02:17:15;;;;;;;23.30;13.25;;;;;;;10.97;50.39;100229.72;5089428;28;20173;-80
2022/03/30 02:19:40;;;;;;;26.80;14.43;;;;;;;10.96;50.51;100238.81;5110106;28;20035;-79
2022/03/30 02:22:06;;;;;;;24.27;14.60;;;;;;;10.91;50.69;100228.56;5102226;28;20519;-80
2022/03/30 02:24:31;;;;;;;24.80;15.02;;;;;;;10.88;50.60;100226.19;5091477;28;20285;-77
2022/03/30 02:26:57;;;;;;;27.15;15.55;;;;;;;10.83;51.03;100227.75;5109701;28;20485;-78
2022/03/30 02:29:22;;;;;;;28.42;14.98;;;;;;;10.89;51.38;100232.44;5059747;28;20074;-78
2022/03/30 02:31:48;;;;;;;25.60;15.73;;;;;;;10.83;51.11;100228.56;5090906;28;20051;-78
2022/03/30 02:34:13;;;;;;;27.38;15.52;;;;;;;10.67;51.25;100204.44;5092303;28;20522;-79
2022/03/30 02:36:40;;;;;;;23.98;14.20;;;;;;;10.81;51.30;100227.91;5107423;28;20088;-79
2022/03/30 02:39:05;;;;;;;24.83;14.35;;;;;;;10.84;51.28;100234.78;5091403;28;20091;-77
2022/03/30 02:41:31;;;;;;;23.63;14.55;;;;;;;10.76;51.36;100223.03;5103367;28;20056;-78
2022/03/30 02:43:56;;;;;;;22.92;14.38;;;;;;;10.79;51.53;100227.22;5080615;28;20036;-80
2022/03/30 02:46:22;;;;;;;20.90;14.13;;;;;;;10.78;51.68;100233.63;5104529;28;20149;-78
2022/03/30 02:48:50;;;;;;;22.83;14.40;;;;;;;10.76;51.75;100230.28;5084087;28;21513;-77
2022/03/30 02:51:16;;;;;;;24.88;14.82;;;;;;;10.83;51.79;100227.75;5080162;28;20480;-78
2022/03/30 02:53:41;;;;;;;28.60;14.65;;;;;;;10.79;51.78;100229.94;5108809;28;20063;-82
2022/03/30 02:56:07;;;;;;;30.37;14.23;;;;;;;10.75;51.91;100224.06;5104629;28;20028;-81
2022/03/30 02:58:33;;;;;;;22.70;13.60;;;;;;;10.77;51.99;100232.81;5086265;28;20270;-77
2022/03/30 03:00:58;;;;;;;23.37;13.93;;;;;;;10.71;52.10;100243.41;5108571;28;20119;-78
2022/03/30 03:03:24;;;;;;;24.57;14.03;;;;;;;10.78;52.11;100242.53;5109143;28;20292;-80
2022/03/30 03:05:52;;;;;;;23.23;13.88;;;;;;;10.74;52.19;100243.06;5084816;28;20311;-79
2022/03/30 03:08:18;;;;;;;25.48;13.90;;;;;;;10.71;52.30;100244.25;5107629;28;20096;-78
2022/03/30 03:10:45;;;;;;;27.95;13.82;;;;;;;10.69;52.33;100248.13;5104621;28;20185;-79
2022/03/30 03:13:11;;;;;;;24.40;13.73;;;;;;;10.67;52.46;100242.06;5062307;28;20028;-81
2022/03/30 03:15:37;;;;;;;24.60;13.88;;;;;;;10.74;52.44;100254.63;5066209;28;20048;-80
2022/03/30 03:18:03;;;;;;;20.88;13.55;;;;;;;10.60;52.52;100236.53;5068816;28;20079;-80
2022/03/30 03:20:29;;;;;;;22.90;13.32;;;;;;;10.59;52.88;100240.25;5103458;28;20028;-81
2022/03/30 03:22:56;;;;;;;25.67;13.43;;;;;;;10.60;52.76;100241.91;5099233;28;20356;-81
2022/03/30 03:25:22;;;;;;;24.25;13.55;;;;;;;10.68;52.79;100249.97;5103575;28;20059;-80
2022/03/30 03:27:47;;;;;;;22.27;13.60;;;;;;;10.63;53.02;100249.66;5074255;28;20035;-80
2022/03/30 03:30:14;;;;;;;22.08;13.70;;;;;;;10.56;52.85;100235.22;5070550;28;20453;-81
2022/03/30 03:32:41;;;;;;;23.77;14.23;;;;;;;10.68;53.02;100251.81;5094575;28;20470;-81
2022/03/30 03:35:09;;;;;;;25.95;14.30;;;;;;;10.61;53.14;100251.66;5068289;28;20035;-80
2022/03/30 03:37:59;;;;;;;24.90;14.43;;;;;;;10.69;53.01;100257.00;5113371;28;20068;-78
2022/03/30 03:40:26;;;;;;;26.15;14.80;;;;;;;10.64;52.99;100258.53;5111045;28;20042;-79
2022/03/30 03:42:52;;;;;;;26.98;15.02;;;;;;;10.71;52.90;100254.16;5099004;28;20020;-80
2022/03/30 03:45:18;;;;;;;23.77;14.18;;;;;;;10.57;53.14;100248.47;5082687;28;20509;-80
2022/03/30 03:47:44;;;;;;;29.48;14.20;;;;;;;10.68;52.99;100260.72;5102236;28;20463;-81
2022/03/30 03:50:11;;;;;;;26.70;14.40;;;;;;;10.67;53.14;100255.50;5071586;28;20059;-80
2022/03/30 03:52:39;;;;;;;25.60;14.93;;;;;;;10.69;53.14;100261.56;5112344;28;20035;-79
2022/03/30 03:55:05;;;;;;;22.80;13.48;;;;;;;10.76;53.02;100267.94;5086680;28;20028;-80
2022/03/30 03:57:34;;;;;;;26.02;14.75;;;;;;;10.69;52.93;100257.00;5065671;28;20069;-81
2022/03/30 04:00:00;;;;;;;24.42;14.77;;;;;;;10.74;53.13;100267.25;5086715;28;20516;-83
2022/03/30 04:02:26;;;;;;;29.50;14.50;;;;;;;10.77;52.81;100265.06;5097166;27;20168;-81
2022/03/30 04:04:55;;;;;;;27.75;14.52;;;;;;;10.73;53.12;100271.78;5092930;28;20101;-81
2022/03/30 04:07:22;;;;;;;23.75;14.85;;;;;;;10.69;53.17;100267.75;5115901;27;20023;-81
2022/03/30 04:09:47;;;;;;;21.60;13.90;;;;;;;10.74;53.08;100275.31;5077949;28;20507;-83
2022/03/30 04:12:14;;;;;;;25.30;14.13;;;;;;;10.83;52.80;100279.66;5094325;28;20070;-82
2022/03/30 04:14:40;;;;;;;27.17;14.23;;;;;;;10.77;52.87;100283.06;5106792;28;20335;-82
2022/03/30 04:17:05;;;;;;;24.25;14.23;;;;;;;10.78;52.73;100273.97;5092642;28;20036;-82
2022/03/30 04:19:31;;;;;;;25.63;13.88;;;;;;;10.83;52.80;100285.03;5060548;28;20066;-79
2022/03/30 04:21:57;;;;;;;26.00;13.73;;;;;;;11.02;52.31;100286.50;5091987;28;20048;-81
2022/03/30 04:24:23;;;;;;;26.30;14.35;;;;;;;11.02;52.13;100283.81;5109096;27;20039;-83
2022/03/30 04:26:50;;;;;;;24.77;14.75;;;;;;;11.04;52.26;100292.56;5092277;28;20054;-82
2022/03/30 04:29:16;;;;;;;27.92;14.40;;;;;;;11.06;52.24;100285.16;5073528;28;20024;-83
2022/03/30 04:31:43;;;;;;;20.48;14.02;;;;;;;10.98;52.73;100293.25;5093071;28;20039;-85
2022/03/30 04:34:10;;;;;;;28.88;13.68;;;;;;;11.06;52.26;100285.16;5094333;28;20035;-82
2022/03/30 04:36:36;;;;;;;24.08;13.90;;;;;;;10.97;52.29;100270.06;5111735;28;20040;-79
2022/03/30 04:39:01;;;;;;;24.70;14.20;;;;;;;11.01;52.28;100263.31;5105140;28;20348;-80
2022/03/30 04:41:27;;;;;;;24.67;15.05;;;;;;;11.14;52.26;100286.97;5092384;28;20336;-80
2022/03/30 04:43:54;;;;;;;28.10;14.93;;;;;;;11.27;52.09;100286.44;5093770;28;20070;-79
2022/03/30 04:46:22;;;;;;;27.20;17.13;;;;;;;11.30;51.92;100286.06;5111869;28;20039;-79
2022/03/30 04:48:48;;;;;;;30.67;14.95;;;;;;;11.39;51.73;100293.09;5075604;28;20050;-80
2022/03/30 04:51:13;;;;;;;24.85;14.02;;;;;;;11.46;51.67;100283.31;5100475;28;20484;-80
2022/03/30 04:53:39;;;;;;;38.00;15.23;;;;;;;11.66;51.83;100285.56;5121953;28;20108;-79
2022/03/30 04:56:04;;;;;;;25.92;13.75;;;;;;;11.59;51.13;100282.75;5121225;28;20032;-81
2022/03/30 04:58:30;;;;;;;21.77;13.45;;;;;;;11.77;50.70;100287.84;5052934;28;20036;-79
2022/03/30 05:00:58;;;;;;;29.05;14.88;;;;;;;11.89;50.32;100282.91;5102027;28;20154;-79
2022/03/30 05:03:23;;;;;;;25.90;14.23;;;;;;;11.97;50.20;100289.09;5086935;28;20122;-78
2022/03/30 05:05:49;;;;;;;24.63;13.85;;;;;;;11.96;50.28;100287.44;5102434;28;20134;-81
2022/03/30 05:08:20;;;;;;;25.02;13.68;;;;;;;12.13;49.74;100277.38;5070215;28;20063;-80
2022/03/30 05:10:50;;;;;;;26.98;14.20;;;;;;;12.28;49.75;100284.66;5061096;28;20040;-80
2022/03/30 05:13:15;;;;;;;26.55;14.32;;;;;;;12.37;49.23;100284.41;5097825;28;20039;-80
2022/03/30 05:15:43;;;;;;;27.13;14.43;;;;;;;12.66;48.42;100282.78;5080903;28;20056;-79
2022/03/30 05:18:09;;;;;;;26.55;13.75;;;;;;;12.58;48.54;100285.56;5072808;28;20044;-81
2022/03/30 05:20:35;;;;;;;23.55;14.38;;;;;;;12.66;48.29;100289.00;5085629;28;20047;-80
2022/03/30 05:23:00;;;;;;;25.25;14.05;;;;;;;12.70;48.18;100288.66;5116779;28;20098;-79
2022/03/30 05:25:26;;;;;;;27.25;14.13;;;;;;;12.97;47.80;100290.75;5101657;28;20036;-78
2022/03/30 05:27:51;;;;;;;25.88;14.25;;;;;;;13.05;47.29;100287.09;5098291;28;20028;-78
2022/03/30 05:30:17;;;;;;;24.23;13.45;;;;;;;13.14;47.38;100291.38;5073145;28;20057;-78
2022/03/30 05:33:11;;;;;;;26.35;14.18;;;;;;;13.26;46.79;100295.28;5099260;28;20484;-78
2022/03/30 05:35:39;;;;;;;25.05;13.13;;;;;;;14.42;44.03;100281.81;5081779;28;20532;-79
2022/03/30 05:38:07;;;;;;;22.35;13.27;;;;;;;16.17;40.13;100280.63;5056264;28;20432;-78
2022/03/30 05:40:38;;;;;;;20.50;12.65;;;;;;;17.57;37.09;100274.16;5072479;28;20074;-78
2022/03/30 05:43:14;;;;;;;24.88;13.02;;;;;;;18.67;34.84;100277.41;5088606;28;20040;-78
2022/03/30 05:45:56;;;;;;;23.90;11.80;;;;;;;19.79;32.70;100276.41;5083466;28;20046;-77
2022/03/30 05:48:37;;;;;;;21.08;12.15;;;;;;;20.32;31.69;100272.03;5083914;28;20445;-78
2022/03/30 05:51:35;;;;;;;21.63;11.52;;;;;;;21.07;30.47;100283.16;5089804;28;20034;-78
2022/03/30 05:54:12;;;;;;;19.52;12.07;;;;;;;21.24;29.88;100296.91;5087941;28;20032;-79
2022/03/30 05:59:34;;;;;;;19.88;11.20;;;;;;;22.67;27.81;100276.06;5097846;28;20026;-77
2022/03/30 06:02:11;;;;;;;21.52;10.55;;;;;;;22.75;27.68;100289.34;5089124;28;20118;-78
2022/03/30 06:04:53;;;;;;;20.85;11.10;;;;;;;22.71;27.33;100266.25;5087124;28;20039;-79
2022/03/30 06:10:43;;;;;;;24.65;11.27;;;;;;;23.36;26.54;100279.25;5089698;28;20551;-79
2022/03/30 06:13:14;;;;;;;27.63;12.65;;;;;;;22.77;27.04;100268.00;5092084;28;20020;-78
2022/03/30 06:15:40;;;;;;;18.73;12.15;;;;;;;23.37;26.41;100252.69;5075658;28;20035;-78
2022/03/30 06:18:13;;;;;;;28.75;13.68;;;;;;;23.52;26.33;100273.97;5079918;28;20028;-77
2022/03/30 06:20:53;;;;;;;30.90;13.55;;;;;;;24.95;24.30;100255.25;5084523;28;20043;-77
2022/03/30 06:23:27;;;;;;;33.95;13.35;;;;;;;24.67;24.14;100262.75;5094809;28;20047;-77
2022/03/30 06:26:22;;;;;;;23.17;14.38;;;;;;;24.20;25.03;100261.53;5077574;28;20031;-79
2022/03/30 06:28:58;;;;;;;24.00;14.23;;;;;;;26.06;23.12;100283.53;5043715;28;20048;-81
2022/03/30 06:31:37;;;;;;;26.48;14.90;;;;;;;26.29;22.16;100252.69;5062706;28;20576;-81
2022/03/30 06:34:05;;;;;;;32.35;14.15;;;;;;;26.89;21.62;100261.19;5108629;28;20061;-77
2022/03/30 06:36:33;;;;;;;18.65;11.88;;;;;;;27.73;20.57;100260.63;5086428;28;20023;-79
2022/03/30 06:39:05;;;;;;;21.23;12.30;;;;;;;27.55;20.98;100271.19;5107529;28;20103;-78
2022/03/30 06:41:34;;;;;;;25.77;13.40;;;;;;;25.96;22.58;100284.31;5095505;28;20613;-79
2022/03/30 06:44:02;;;;;;;23.10;12.95;;;;;;;26.71;22.15;100270.88;5102703;28;20039;-79
2022/03/30 06:46:29;;;;;;;20.50;12.82;;;;;;;27.71;20.97;100271.13;5104011;28;20032;-82
2022/03/30 06:48:54;;;;;;;22.10;11.95;;;;;;;28.08;20.46;100280.88;5101904;28;20067;-81
2022/03/30 06:51:20;;;;;;;24.67;12.13;;;;;;;28.09;20.08;100285.28;5103346;28;20092;-81
2022/03/30 06:53:46;;;;;;;26.67;12.20;;;;;;;27.43;21.03;100292.78;5096304;28;20027;-78
2022/03/30 06:56:12;;;;;;;27.00;12.98;;;;;;;27.85;20.48;100290.69;5094615;28;20165;-79
2022/03/30 06:58:37;;;;;;;26.52;14.40;;;;;;;26.98;21.16;100293.72;5104619;28;20485;-80
2022/03/30 07:01:03;;;;;;;21.00;14.27;;;;;;;28.27;19.93;100295.63;5098568;28;20048;-80
2022/03/30 07:03:29;;;;;;;29.95;14.20;;;;;;;29.62;18.68;100289.34;5101165;28;20139;-80
2022/03/30 07:05:55;;;;;;;23.65;15.15;;;;;;;29.33;18.59;100288.59;5102105;28;20031;-80
2022/03/30 07:11:05;;;;;;;22.33;12.68;;;;;;;29.13;18.51;100284.13;5108772;28;20130;-81
2022/03/30 07:13:30;;;;;;;22.13;12.15;;;;;;;28.59;19.26;100291.56;5108788;28;20032;-80
2022/03/30 07:15:56;;;;;;;20.05;11.32;;;;;;;27.87;19.67;100281.00;5100489;28;20415;-77
2022/03/30 07:18:21;;;;;;;22.52;13.02;;;;;;;28.01;19.91;100285.91;5096730;28;20472;-79
2022/03/30 07:20:47;;;;;;;23.05;12.55;;;;;;;28.31;19.68;100291.19;5087598;28;20024;-80
2022/03/30 07:23:14;;;;;;;26.00;12.25;;;;;;;28.43;19.84;100288.06;5106058;28;20069;-79
2022/03/30 07:25:40;;;;;;;22.98;11.23;;;;;;;28.52;19.49;100285.53;5101566;28;20032;-80
2022/03/30 07:28:06;;;;;;;26.90;11.02;;;;;;;29.63;18.31;100279.06;5100056;28;20028;-79
2022/03/30 07:30:32;;;;;;;29.25;10.60;;;;;;;31.00;17.27;100282.75;5105349;28;20134;-80
2022/03/30 07:32:58;;;;;;;20.33;10.50;;;;;;;32.33;15.77;100279.91;5110653;28;20459;-80
2022/03/30 07:35:25;;;;;;;28.98;11.13;;;;;;;31.78;16.01;100271.75;5098776;28;20060;-80
2022/03/30 07:37:51;;;;;;;24.10;9.57;;;;;;;32.21;15.40;100279.66;5098415;28;20027;-81
2022/03/30 07:40:18;;;;;;;19.70;9.18;;;;;;;32.06;15.47;100280.84;5093446;28;20129;-79
2022/03/30 07:42:44;;;;;;;23.23;9.52;;;;;;;31.57;15.61;100277.75;5101141;28;20133;-79
2022/03/30 07:45:10;;;;;;;21.30;8.85;;;;;;;32.37;15.15;100286.47;5079235;28;20085;-79
2022/03/30 07:47:35;;;;;;;21.58;9.48;;;;;;;32.30;15.29;100284.13;5104257;28;20430;-80
2022/03/30 07:50:01;;;;;;;18.80;8.70;;;;;;;29.79;17.48;100290.81;5083156;28;20040;-79
2022/03/30 07:52:27;;;;;;;17.55;9.00;;;;;;;31.25;16.16;100270.31;5090856;28;20135;-79
2022/03/30 07:54:54;;;;;;;20.90;9.07;;;;;;;31.59;16.09;100275.47;5092556;28;20028;-81
2022/03/30 07:57:26;;;;;;;20.67;9.13;;;;;;;33.06;14.71;100266.63;5109508;28;20552;-80
2022/03/30 07:59:55;;;;;;;24.33;10.07;;;;;;;32.97;14.59;100276.88;5109436;28;20058;-80
2022/03/30 08:02:21;;;;;;;21.15;10.10;;;;;;;33.55;14.30;100273.00;5100852;28;20034;-80
2022/03/30 08:04:47;;;;;;;25.27;9.80;;;;;;;33.02;14.64;100276.72;5110202;28;20036;-81
2022/03/30 08:07:14;;;;;;;25.25;11.95;;;;;;;33.28;14.39;100276.84;5080726;28;20028;-78
2022/03/30 08:09:42;;;;;;;29.73;11.90;;;;;;;33.46;14.71;100285.25;5089213;28;20477;-79
2022/03/30 08:12:10;;;;;;;26.42;11.50;;;;;;;34.37;14.36;100286.34;5089445;28;20036;-78
2022/03/30 08:14:37;;;;;;;27.02;12.05;;;;;;;35.02;13.54;100288.00;5089497;28;20030;-82
2022/03/30 08:17:05;;;;;;;24.20;10.70;;;;;;;33.70;14.47;100285.66;5105609;28;20115;-79
2022/03/30 08:19:30;;;;;;;19.52;10.68;;;;;;;34.45;13.78;100285.53;5114190;28;20076;-78
2022/03/30 08:24:46;;;;;;;27.20;10.30;;;;;;;34.58;13.09;100275.31;5113869;28;20039;-82
2022/03/30 08:27:21;;;;;;;19.83;10.13;;;;;;;34.05;13.27;100280.13;5116617;28;20195;-79
2022/03/30 08:29:48;;;;;;;27.50;10.38;;;;;;;34.15;13.66;100279.81;5096045;28;20046;-81
2022/03/30 08:32:17;;;;;;;22.27;9.90;;;;;;;35.07;13.30;100270.25;5116266;28;20149;-81
2022/03/30 08:34:42;;;;;;;19.52;9.60;;;;;;;35.52;12.77;100275.31;5110346;28;20044;-80
2022/03/30 08:37:09;;;;;;;23.92;9.93;;;;;;;35.93;12.25;100273.72;5093638;28;20457;-80
2022/03/30 08:39:37;;;;;;;20.33;10.35;;;;;;;36.64;11.38;100264.38;5096837;28;20043;-81
2022/03/30 08:42:06;;;;;;;28.67;11.25;;;;;;;36.81;11.61;100273.72;5110076;28;20090;-77
2022/03/30 08:44:33;;;;;;;19.20;10.20;;;;;;;37.74;10.68;100265.59;5111901;28;20031;-81
2022/03/30 08:46:59;;;;;;;23.38;9.70;;;;;;;38.65;10.02;100273.44;5109843;28;20024;-81
2022/03/30 08:49:26;;;;;;;18.45;10.20;;;;;;;39.19;9.36;100270.03;5111130;28;20466;-78
2022/03/30 08:52:14;;;;;;;17.40;10.88;;;;;;;39.11;9.63;100271.03;5093688;28;20175;-79
2022/03/30 08:54:44;;;;;;;19.05;9.90;;;;;;;37.73;10.27;100261.16;5110866;28;20667;-81
2022/03/30 08:57:13;;;;;;;24.60;11.13;;;;;;;38.04;9.84;100262.50;5111864;28;20039;-82
2022/03/30 08:59:38;;;;;;;21.85;11.98;;;;;;;37.25;9.97;100254.41;5111701;28;20023;-80
2022/03/30 09:02:04;;;;;;;24.65;11.82;;;;;;;36.44;10.51;100251.25;5123295;28;20054;-80
2022/03/30 09:04:29;;;;;;;21.83;12.20;;;;;;;36.39;10.79;100255.06;5093963;28;20076;-80
2022/03/30 09:06:56;;;;;;;18.23;12.13;;;;;;;34.61;11.54;100253.19;5111089;28;20039;-82
2022/03/30 09:09:35;;;;;;;24.75;13.00;;;;;;;34.97;11.17;100237.13;5106271;28;20035;-81
2022/03/30 09:12:06;;;;;;;19.30;12.38;;;;;;;35.56;11.39;100234.31;5111735;28;20035;-80
2022/03/30 09:14:33;;;;;;;21.80;12.88;;;;;;;36.22;10.68;100242.09;5106184;28;20024;-81
2022/03/30 09:17:01;;;;;;;18.83;12.77;;;;;;;36.16;11.15;100231.44;5109686;28;20114;-80
2022/03/30 09:19:29;;;;;;;21.00;14.23;;;;;;;34.16;11.84;100242.41;5110794;28;20408;-80
2022/03/30 09:21:58;;;;;;;19.45;12.45;;;;;;;34.51;11.87;100228.38;5109426;28;20039;-80
2022/03/30 09:24:28;;;;;;;16.48;11.48;;;;;;;34.03;12.63;100237.81;5095562;28;20034;-80
2022/03/30 09:26:54;;;;;;;18.38;11.35;;;;;;;34.63;11.83;100234.13;5110715;28;20064;-81
2022/03/30 09:29:21;;;;;;;20.48;12.27;;;;;;;35.47;11.49;100233.56;5110465;28;20048;-81
2022/03/30 09:31:50;;;;;;;21.80;12.27;;;;;;;35.70;11.51;100220.94;5110516;28;20058;-80
2022/03/30 09:34:16;;;;;;;19.58;12.13;;;;;;;35.76;11.46;100213.16;5111897;28;20092;-80
2022/03/30 09:36:46;;;;;;;20.13;12.13;;;;;;;34.83;12.01;100215.00;5109965;28;20088;-79
2022/03/30 09:39:34;;;;;;;20.45;12.82;;;;;;;33.34;12.90;100228.22;5107177;28;20456;-80
2022/03/30 09:42:01;;;;;;;29.08;12.88;;;;;;;35.07;11.39;100209.66;5085799;28;20047;-80
2022/03/30 09:44:30;;;;;;;23.75;14.40;;;;;;;35.63;11.12;100208.66;5104077;28;20028;-81
2022/03/30 09:47:05;;;;;;;23.88;14.30;;;;;;;36.93;10.08;100220.56;5100673;28;20028;-81
2022/03/30 09:49:39;;;;;;;19.55;13.60;;;;;;;37.35;9.64;100209.91;5111993;28;20028;-80
2022/03/30 09:52:11;;;;;;;22.48;14.05;;;;;;;36.97;9.84;100204.66;5111660;28;20477;-80
2022/03/30 09:54:40;;;;;;;22.17;14.27;;;;;;;38.04;8.90;100200.75;5099415;28;20062;-82
2022/03/30 09:57:13;;;;;;;26.42;15.10;;;;;;;39.60;8.20;100185.44;5109041;28;20038;-79
2022/03/30 09:59:58;;;;;;;21.27;15.73;;;;;;;39.29;7.96;100191.94;5107862;28;20061;-82
2022/03/30 10:02:24;;;;;;;18.85;14.68;;;;;;;40.06;7.77;100174.31;5110281;28;20070;-80
2022/03/30 10:04:50;;;;;;;21.17;15.70;;;;;;;41.03;7.27;100164.75;5109227;28;20081;-80
2022/03/30 10:07:15;;;;;;;21.58;15.23;;;;;;;41.10;7.31;100182.59;5106478;28;20081;-80
2022/03/30 10:09:42;;;;;;;25.55;14.27;;;;;;;41.70;6.97;100176.22;5110449;28;20043;-80
2022/03/30 10:12:08;;;;;;;17.98;11.82;;;;;;;40.09;8.80;100177.19;5092983;28;20059;-80
2022/03/30 10:14:34;;;;;;;21.55;9.00;;;;;;;36.73;11.54;100167.06;5083610;28;20024;-80
2022/03/30 10:16:59;;;;;;;17.92;9.75;;;;;;;36.44;12.15;100173.69;5102236;28;20454;-81
2022/03/30 10:19:25;;;;;;;17.42;9.27;;;;;;;36.58;12.09;100169.75;5106154;28;20031;-81
2022/03/30 10:22:13;;;;;;;13.52;9.52;;;;;;;36.78;11.78;100180.03;5089521;28;20055;-81
2022/03/30 10:24:43;;;;;;;17.50;9.48;;;;;;;36.23;12.58;100179.34;5079270;28;20028;-82
2022/03/30 10:27:16;;;;;;;15.85;9.40;;;;;;;35.41;13.29;100151.91;5105635;28;20434;-83
2022/03/30 10:29:54;;;;;;;15.85;9.77;;;;;;;35.41;12.86;100174.28;5106540;28;20120;-82
2022/03/30 10:32:23;;;;;;;20.85;10.00;;;;;;;36.00;12.46;100166.91;5092374;28;20035;-82
2022/03/30 10:35:08;;;;;;;18.02;9.65;;;;;;;36.06;12.33;100162.72;5104449;28;20035;-81
2022/03/30 10:37:38;;;;;;;18.02;9.35;;;;;;;35.04;13.03;100171.19;5109838;28;20035;-82
2022/03/30 10:40:03;;;;;;;16.52;9.43;;;;;;;34.41;13.52;100170.16;5107132;28;20032;-82
2022/03/30 10:42:47;;;;;;;15.32;9.02;;;;;;;35.02;13.36;100144.75;5110412;28;20122;-81
2022/03/30 10:45:25;;;;;;;15.88;9.35;;;;;;;33.23;14.22;100154.47;5109024;28;20031;-81
2022/03/30 10:48:14;;;;;;;13.85;9.27;;;;;;;34.36;13.71;100153.59;5110893;28;20027;-81
2022/03/30 10:51:10;;;;;;;15.25;9.32;;;;;;;34.47;13.88;100158.47;5099324;28;20032;-82
2022/03/30 10:53:39;;;;;;;15.73;8.77;;;;;;;34.28;13.93;100154.44;5114514;28;20023;-81
2022/03/30 10:56:22;;;;;;;23.83;9.95;;;;;;;35.13;13.39;100151.63;5119296;28;20051;-81
2022/03/30 10:58:53;;;;;;;16.88;8.90;;;;;;;34.54;13.33;100146.81;5110512;28;20042;-83
2022/03/30 11:01:39;;;;;;;18.05;9.40;;;;;;;35.16;12.72;100133.38;5112196;28;20122;-83
2022/03/30 11:04:18;;;;;;;18.15;9.02;;;;;;;34.36;13.26;100146.03;5098125;28;20015;-82
2022/03/30 11:06:45;;;;;;;14.70;8.88;;;;;;;34.03;13.65;100143.00;5114782;28;20079;-81
2022/03/30 11:09:32;;;;;;;21.42;9.57;;;;;;;34.58;13.23;100127.41;5106230;28;20127;-82
2022/03/30 11:12:00;;;;;;;18.10;8.90;;;;;;;34.23;13.63;100130.31;5096560;28;20070;-81
2022/03/30 11:14:32;;;;;;;15.90;9.27;;;;;;;32.96;14.22;100134.03;5116774;28;20058;-80
2022/03/30 11:17:02;;;;;;;15.27;9.23;;;;;;;32.16;14.75;100125.69;5112975;28;20028;-81
2022/03/30 11:19:56;;;;;;;15.55;9.55;;;;;;;30.80;16.10;100117.47;5098528;28;20511;-80
2022/03/30 11:22:30;;;;;;;16.45;10.52;;;;;;;31.66;15.99;100131.41;5101497;28;20038;-82
2022/03/30 11:25:05;;;;;;;14.88;9.48;;;;;;;30.82;16.39;100129.88;5106566;28;20028;-80
2022/03/30 11:27:30;;;;;;;14.60;8.95;;;;;;;31.57;15.89;100119.41;5116170;28;20480;-83
2022/03/30 11:30:19;;;;;;;19.55;9.20;;;;;;;31.03;16.19;100118.38;5114299;28;20055;-81
2022/03/30 11:33:01;;;;;;;16.45;9.50;;;;;;;31.72;15.94;100124.56;5117081;28;20046;-83